sensor_id;sensor_type;location;lat;lon;timestamp;P1;durP1;ratioP1;P2;durP2;ratioP2
22622;SDS011;11478;51.094;7.030;2023-12-20T00:02:06;56.30;;;28.98;;
22622;SDS011;11478;51.094;7.030;2023-12-20T00:04:32;57.22;;;28.17;;
22622;SDS011;11478;51.094;7.030;2023-12-20T00:06:58;59.22;;;28.60;;
22622;SDS011;11478;51.094;7.030;2023-12-20T00:09:27;54.75;;;27.58;;
22622;SDS011;11478;51.094;7.030;2023-12-20T00:11:52;49.72;;;24.95;;
22622;SDS011;11478;51.094;7.030;2023-12-20T00:17:08;45.08;;;21.67;;
22622;SDS011;11478;51.094;7.030;2023-12-20T00:19:35;49.03;;;21.23;;
22622;SDS011;11478;51.094;7.030;2023-12-20T00:22:01;35.08;;;18.17;;
22622;SDS011;11478;51.094;7.030;2023-12-20T00:24:34;25.52;;;13.55;;
22622;SDS011;11478;51.094;7.030;2023-12-20T00:27:00;22.13;;;12.10;;
22622;SDS011;11478;51.094;7.030;2023-12-20T00:29:25;18.80;;;8.85;;
22622;SDS011;11478;51.094;7.030;2023-12-20T00:31:51;16.70;;;7.82;;
22622;SDS011;11478;51.094;7.030;2023-12-20T00:34:17;14.70;;;7.43;;
22622;SDS011;11478;51.094;7.030;2023-12-20T00:36:43;17.05;;;8.07;;
22622;SDS011;11478;51.094;7.030;2023-12-20T00:39:09;18.23;;;7.68;;
22622;SDS011;11478;51.094;7.030;2023-12-20T00:41:35;16.38;;;7.40;;
22622;SDS011;11478;51.094;7.030;2023-12-20T00:44:00;16.42;;;7.10;;
22622;SDS011;11478;51.094;7.030;2023-12-20T00:46:29;17.20;;;7.95;;
22622;SDS011;11478;51.094;7.030;2023-12-20T00:48:55;17.88;;;7.55;;
22622;SDS011;11478;51.094;7.030;2023-12-20T00:51:27;17.65;;;8.00;;
22622;SDS011;11478;51.094;7.030;2023-12-20T00:53:53;14.40;;;6.95;;
22622;SDS011;11478;51.094;7.030;2023-12-20T00:56:25;14.25;;;7.57;;
22622;SDS011;11478;51.094;7.030;2023-12-20T00:58:51;17.10;;;7.90;;
22622;SDS011;11478;51.094;7.030;2023-12-20T01:01:19;14.85;;;7.93;;
22622;SDS011;11478;51.094;7.030;2023-12-20T01:03:46;15.80;;;8.07;;
22622;SDS011;11478;51.094;7.030;2023-12-20T01:06:13;15.15;;;7.85;;
22622;SDS011;11478;51.094;7.030;2023-12-20T01:08:39;27.48;;;8.70;;
22622;SDS011;11478;51.094;7.030;2023-12-20T01:13:35;20.13;;;9.02;;
22622;SDS011;11478;51.094;7.030;2023-12-20T01:16:01;18.08;;;8.68;;
22622;SDS011;11478;51.094;7.030;2023-12-20T01:18:27;27.10;;;8.88;;
22622;SDS011;11478;51.094;7.030;2023-12-20T01:20:53;21.00;;;8.70;;
22622;SDS011;11478;51.094;7.030;2023-12-20T01:23:19;21.95;;;9.35;;
22622;SDS011;11478;51.094;7.030;2023-12-20T01:25:45;20.27;;;8.82;;
22622;SDS011;11478;51.094;7.030;2023-12-20T01:28:11;29.27;;;9.32;;
22622;SDS011;11478;51.094;7.030;2023-12-20T01:30:37;22.08;;;9.93;;
22622;SDS011;11478;51.094;7.030;2023-12-20T01:33:06;22.20;;;8.93;;
22622;SDS011;11478;51.094;7.030;2023-12-20T01:35:32;21.10;;;8.55;;
22622;SDS011;11478;51.094;7.030;2023-12-20T01:37:57;22.73;;;9.35;;
22622;SDS011;11478;51.094;7.030;2023-12-20T01:40:23;26.52;;;10.13;;
22622;SDS011;11478;51.094;7.030;2023-12-20T01:43:01;22.90;;;10.20;;
22622;SDS011;11478;51.094;7.030;2023-12-20T01:45:28;31.55;;;10.82;;
22622;SDS011;11478;51.094;7.030;2023-12-20T01:47:57;30.85;;;11.05;;
22622;SDS011;11478;51.094;7.030;2023-12-20T01:50:24;28.10;;;11.18;;
22622;SDS011;11478;51.094;7.030;2023-12-20T01:52:50;25.70;;;11.10;;
22622;SDS011;11478;51.094;7.030;2023-12-20T01:55:18;32.50;;;12.90;;
22622;SDS011;11478;51.094;7.030;2023-12-20T01:57:45;37.22;;;15.73;;
22622;SDS011;11478;51.094;7.030;2023-12-20T02:00:12;40.17;;;15.77;;
22622;SDS011;11478;51.094;7.030;2023-12-20T02:02:40;40.75;;;16.95;;
22622;SDS011;11478;51.094;7.030;2023-12-20T02:05:08;38.53;;;17.35;;
22622;SDS011;11478;51.094;7.030;2023-12-20T02:07:38;42.58;;;17.25;;
22622;SDS011;11478;51.094;7.030;2023-12-20T02:10:04;41.60;;;18.48;;
22622;SDS011;11478;51.094;7.030;2023-12-20T02:12:30;46.42;;;20.98;;
22622;SDS011;11478;51.094;7.030;2023-12-20T02:14:57;43.67;;;19.88;;
22622;SDS011;11478;51.094;7.030;2023-12-20T02:17:23;47.38;;;20.40;;
22622;SDS011;11478;51.094;7.030;2023-12-20T02:19:50;44.45;;;19.73;;
22622;SDS011;11478;51.094;7.030;2023-12-20T02:22:16;45.70;;;20.75;;
22622;SDS011;11478;51.094;7.030;2023-12-20T02:24:42;44.30;;;19.45;;
22622;SDS011;11478;51.094;7.030;2023-12-20T02:27:08;38.13;;;18.77;;
22622;SDS011;11478;51.094;7.030;2023-12-20T02:32:18;41.13;;;17.92;;
22622;SDS011;11478;51.094;7.030;2023-12-20T02:34:48;35.13;;;17.65;;
22622;SDS011;11478;51.094;7.030;2023-12-20T02:37:14;40.58;;;16.50;;
22622;SDS011;11478;51.094;7.030;2023-12-20T02:39:42;42.33;;;17.13;;
22622;SDS011;11478;51.094;7.030;2023-12-20T02:42:07;37.17;;;16.48;;
22622;SDS011;11478;51.094;7.030;2023-12-20T02:44:33;35.92;;;16.75;;
22622;SDS011;11478;51.094;7.030;2023-12-20T02:46:59;43.30;;;16.55;;
22622;SDS011;11478;51.094;7.030;2023-12-20T02:49:31;38.85;;;16.08;;
22622;SDS011;11478;51.094;7.030;2023-12-20T02:51:57;33.45;;;14.90;;
22622;SDS011;11478;51.094;7.030;2023-12-20T02:54:25;42.00;;;16.27;;
22622;SDS011;11478;51.094;7.030;2023-12-20T02:56:50;38.20;;;14.98;;
22622;SDS011;11478;51.094;7.030;2023-12-20T02:59:16;32.72;;;14.30;;
22622;SDS011;11478;51.094;7.030;2023-12-20T03:01:58;42.45;;;14.63;;
22622;SDS011;11478;51.094;7.030;2023-12-20T03:06:55;41.72;;;14.25;;
22622;SDS011;11478;51.094;7.030;2023-12-20T03:09:20;37.10;;;13.27;;
22622;SDS011;11478;51.094;7.030;2023-12-20T03:11:46;42.38;;;13.00;;
22622;SDS011;11478;51.094;7.030;2023-12-20T03:14:12;38.45;;;12.52;;
22622;SDS011;11478;51.094;7.030;2023-12-20T03:16:38;39.65;;;12.45;;
22622;SDS011;11478;51.094;7.030;2023-12-20T03:19:12;36.20;;;12.07;;
22622;SDS011;11478;51.094;7.030;2023-12-20T03:21:37;30.35;;;9.73;;
22622;SDS011;11478;51.094;7.030;2023-12-20T03:24:04;39.92;;;9.35;;
22622;SDS011;11478;51.094;7.030;2023-12-20T03:26:30;28.88;;;8.20;;
22622;SDS011;11478;51.094;7.030;2023-12-20T03:28:59;31.92;;;7.72;;
22622;SDS011;11478;51.094;7.030;2023-12-20T03:31:25;34.88;;;7.68;;
22622;SDS011;11478;51.094;7.030;2023-12-20T03:33:52;39.15;;;7.40;;
22622;SDS011;11478;51.094;7.030;2023-12-20T03:36:19;34.88;;;7.78;;
22622;SDS011;11478;51.094;7.030;2023-12-20T03:38:49;39.30;;;7.25;;
22622;SDS011;11478;51.094;7.030;2023-12-20T03:41:15;35.58;;;6.85;;
22622;SDS011;11478;51.094;7.030;2023-12-20T03:43:41;36.88;;;7.10;;
22622;SDS011;11478;51.094;7.030;2023-12-20T03:46:08;29.75;;;7.38;;
22622;SDS011;11478;51.094;7.030;2023-12-20T03:48:35;22.92;;;6.63;;
22622;SDS011;11478;51.094;7.030;2023-12-20T03:51:01;32.15;;;7.40;;
22622;SDS011;11478;51.094;7.030;2023-12-20T03:53:27;35.95;;;6.95;;
22622;SDS011;11478;51.094;7.030;2023-12-20T03:55:53;27.42;;;6.63;;
22622;SDS011;11478;51.094;7.030;2023-12-20T03:58:18;28.63;;;7.50;;
22622;SDS011;11478;51.094;7.030;2023-12-20T04:00:44;32.58;;;7.28;;
22622;SDS011;11478;51.094;7.030;2023-12-20T04:03:10;35.15;;;7.68;;
22622;SDS011;11478;51.094;7.030;2023-12-20T04:05:39;25.17;;;6.72;;
22622;SDS011;11478;51.094;7.030;2023-12-20T04:08:05;28.52;;;7.15;;
22622;SDS011;11478;51.094;7.030;2023-12-20T04:10:32;31.52;;;7.50;;
22622;SDS011;11478;51.094;7.030;2023-12-20T04:12:58;26.83;;;7.10;;
22622;SDS011;11478;51.094;7.030;2023-12-20T04:15:24;29.95;;;7.07;;
22622;SDS011;11478;51.094;7.030;2023-12-20T04:17:51;29.15;;;7.15;;
22622;SDS011;11478;51.094;7.030;2023-12-20T04:20:17;38.45;;;7.25;;
22622;SDS011;11478;51.094;7.030;2023-12-20T04:22:43;26.95;;;7.10;;
22622;SDS011;11478;51.094;7.030;2023-12-20T04:25:08;25.02;;;7.30;;
22622;SDS011;11478;51.094;7.030;2023-12-20T04:27:35;24.83;;;6.82;;
22622;SDS011;11478;51.094;7.030;2023-12-20T04:30:00;29.20;;;7.38;;
22622;SDS011;11478;51.094;7.030;2023-12-20T04:32:26;31.85;;;7.57;;
22622;SDS011;11478;51.094;7.030;2023-12-20T04:34:52;25.98;;;6.53;;
22622;SDS011;11478;51.094;7.030;2023-12-20T04:37:18;27.65;;;7.07;;
22622;SDS011;11478;51.094;7.030;2023-12-20T04:39:44;32.05;;;7.20;;
22622;SDS011;11478;51.094;7.030;2023-12-20T04:42:12;31.73;;;7.03;;
22622;SDS011;11478;51.094;7.030;2023-12-20T04:44:37;35.28;;;6.82;;
22622;SDS011;11478;51.094;7.030;2023-12-20T04:47:03;31.75;;;6.85;;
22622;SDS011;11478;51.094;7.030;2023-12-20T04:49:29;30.15;;;6.72;;
22622;SDS011;11478;51.094;7.030;2023-12-20T04:51:58;31.50;;;7.13;;
22622;SDS011;11478;51.094;7.030;2023-12-20T04:54:24;35.38;;;6.78;;
22622;SDS011;11478;51.094;7.030;2023-12-20T04:56:50;34.55;;;7.07;;
22622;SDS011;11478;51.094;7.030;2023-12-20T04:59:16;36.10;;;7.18;;
22622;SDS011;11478;51.094;7.030;2023-12-20T05:04:10;36.67;;;7.72;;
22622;SDS011;11478;51.094;7.030;2023-12-20T05:06:37;36.00;;;7.53;;
22622;SDS011;11478;51.094;7.030;2023-12-20T05:09:03;26.20;;;7.07;;
22622;SDS011;11478;51.094;7.030;2023-12-20T05:11:29;32.35;;;7.50;;
22622;SDS011;11478;51.094;7.030;2023-12-20T05:13:55;27.77;;;8.02;;
22622;SDS011;11478;51.094;7.030;2023-12-20T05:16:21;35.67;;;8.77;;
22622;SDS011;11478;51.094;7.030;2023-12-20T05:18:48;29.92;;;7.13;;
22622;SDS011;11478;51.094;7.030;2023-12-20T05:21:15;32.28;;;6.88;;
22622;SDS011;11478;51.094;7.030;2023-12-20T05:23:41;42.53;;;7.85;;
22622;SDS011;11478;51.094;7.030;2023-12-20T05:26:07;28.70;;;7.35;;
22622;SDS011;11478;51.094;7.030;2023-12-20T05:28:34;25.63;;;7.00;;
22622;SDS011;11478;51.094;7.030;2023-12-20T05:31:00;31.38;;;7.43;;
22622;SDS011;11478;51.094;7.030;2023-12-20T05:33:28;34.70;;;7.72;;
22622;SDS011;11478;51.094;7.030;2023-12-20T05:35:54;30.50;;;7.50;;
22622;SDS011;11478;51.094;7.030;2023-12-20T05:38:20;25.30;;;8.20;;
22622;SDS011;11478;51.094;7.030;2023-12-20T05:40:45;25.38;;;8.15;;
22622;SDS011;11478;51.094;7.030;2023-12-20T05:43:17;35.28;;;10.45;;
22622;SDS011;11478;51.094;7.030;2023-12-20T05:45:43;24.88;;;8.68;;
22622;SDS011;11478;51.094;7.030;2023-12-20T05:48:13;31.77;;;9.13;;
22622;SDS011;11478;51.094;7.030;2023-12-20T05:50:39;29.95;;;8.05;;
22622;SDS011;11478;51.094;7.030;2023-12-20T05:53:05;36.53;;;8.35;;
22622;SDS011;11478;51.094;7.030;2023-12-20T05:55:31;30.50;;;8.38;;
22622;SDS011;11478;51.094;7.030;2023-12-20T05:57:57;29.70;;;7.93;;
22622;SDS011;11478;51.094;7.030;2023-12-20T06:00:23;31.42;;;9.50;;
22622;SDS011;11478;51.094;7.030;2023-12-20T06:05:30;36.65;;;10.40;;
22622;SDS011;11478;51.094;7.030;2023-12-20T06:07:56;29.48;;;9.98;;
22622;SDS011;11478;51.094;7.030;2023-12-20T06:10:26;30.98;;;11.00;;
22622;SDS011;11478;51.094;7.030;2023-12-20T06:12:52;34.35;;;11.88;;
22622;SDS011;11478;51.094;7.030;2023-12-20T06:15:20;36.45;;;10.98;;
22622;SDS011;11478;51.094;7.030;2023-12-20T06:17:46;38.70;;;11.45;;
22622;SDS011;11478;51.094;7.030;2023-12-20T06:20:16;26.08;;;9.80;;
22622;SDS011;11478;51.094;7.030;2023-12-20T06:22:42;37.10;;;9.95;;
22622;SDS011;11478;51.094;7.030;2023-12-20T06:25:08;32.80;;;11.93;;
22622;SDS011;11478;51.094;7.030;2023-12-20T06:27:34;33.72;;;9.20;;
22622;SDS011;11478;51.094;7.030;2023-12-20T06:30:01;34.33;;;9.30;;
22622;SDS011;11478;51.094;7.030;2023-12-20T06:32:26;29.00;;;10.50;;
22622;SDS011;11478;51.094;7.030;2023-12-20T06:34:54;36.95;;;12.52;;
22622;SDS011;11478;51.094;7.030;2023-12-20T06:37:20;38.85;;;9.30;;
22622;SDS011;11478;51.094;7.030;2023-12-20T06:39:46;26.10;;;8.82;;
22622;SDS011;11478;51.094;7.030;2023-12-20T06:42:12;37.33;;;9.60;;
22622;SDS011;11478;51.094;7.030;2023-12-20T06:44:38;40.85;;;17.60;;
22622;SDS011;11478;51.094;7.030;2023-12-20T06:47:06;40.75;;;16.63;;
22622;SDS011;11478;51.094;7.030;2023-12-20T06:49:31;44.05;;;15.63;;
22622;SDS011;11478;51.094;7.030;2023-12-20T06:52:00;35.78;;;12.65;;
22622;SDS011;11478;51.094;7.030;2023-12-20T06:54:27;43.40;;;11.70;;
22622;SDS011;11478;51.094;7.030;2023-12-20T06:56:55;45.35;;;20.33;;
22622;SDS011;11478;51.094;7.030;2023-12-20T06:59:20;36.40;;;10.07;;
22622;SDS011;11478;51.094;7.030;2023-12-20T07:01:51;27.77;;;9.98;;
22622;SDS011;11478;51.094;7.030;2023-12-20T07:04:17;30.85;;;9.73;;
22622;SDS011;11478;51.094;7.030;2023-12-20T07:06:50;36.05;;;10.50;;
22622;SDS011;11478;51.094;7.030;2023-12-20T07:09:17;38.75;;;9.80;;
22622;SDS011;11478;51.094;7.030;2023-12-20T07:11:43;36.17;;;9.13;;
22622;SDS011;11478;51.094;7.030;2023-12-20T07:14:09;30.60;;;8.15;;
22622;SDS011;11478;51.094;7.030;2023-12-20T07:16:34;33.85;;;9.57;;
22622;SDS011;11478;51.094;7.030;2023-12-20T07:21:30;29.50;;;9.30;;
22622;SDS011;11478;51.094;7.030;2023-12-20T07:23:57;31.33;;;8.40;;
22622;SDS011;11478;51.094;7.030;2023-12-20T07:26:23;25.63;;;8.88;;
22622;SDS011;11478;51.094;7.030;2023-12-20T07:28:49;27.35;;;8.00;;
22622;SDS011;11478;51.094;7.030;2023-12-20T07:31:15;32.75;;;9.15;;
22622;SDS011;11478;51.094;7.030;2023-12-20T07:33:42;33.88;;;9.57;;
22622;SDS011;11478;51.094;7.030;2023-12-20T07:36:07;39.38;;;9.48;;
22622;SDS011;11478;51.094;7.030;2023-12-20T07:38:34;36.90;;;8.52;;
22622;SDS011;11478;51.094;7.030;2023-12-20T07:41:00;34.17;;;8.63;;
22622;SDS011;11478;51.094;7.030;2023-12-20T07:43:26;30.40;;;8.38;;
22622;SDS011;11478;51.094;7.030;2023-12-20T07:45:52;30.63;;;7.90;;
22622;SDS011;11478;51.094;7.030;2023-12-20T07:48:18;23.25;;;7.60;;
22622;SDS011;11478;51.094;7.030;2023-12-20T07:50:44;26.55;;;7.55;;
22622;SDS011;11478;51.094;7.030;2023-12-20T07:53:10;27.42;;;7.70;;
22622;SDS011;11478;51.094;7.030;2023-12-20T07:55:35;27.67;;;7.95;;
22622;SDS011;11478;51.094;7.030;2023-12-20T07:58:02;25.80;;;7.88;;
22622;SDS011;11478;51.094;7.030;2023-12-20T08:00:30;28.70;;;7.72;;
22622;SDS011;11478;51.094;7.030;2023-12-20T08:02:56;36.08;;;7.80;;
22622;SDS011;11478;51.094;7.030;2023-12-20T08:05:21;29.02;;;7.97;;
22622;SDS011;11478;51.094;7.030;2023-12-20T08:07:48;27.85;;;8.20;;
22622;SDS011;11478;51.094;7.030;2023-12-20T08:10:14;27.42;;;7.60;;
22622;SDS011;11478;51.094;7.030;2023-12-20T08:12:40;33.65;;;8.50;;
22622;SDS011;11478;51.094;7.030;2023-12-20T08:15:06;30.73;;;9.25;;
22622;SDS011;11478;51.094;7.030;2023-12-20T08:17:32;26.98;;;8.25;;
22622;SDS011;11478;51.094;7.030;2023-12-20T08:19:58;28.08;;;8.85;;
22622;SDS011;11478;51.094;7.030;2023-12-20T08:22:25;25.30;;;8.20;;
22622;SDS011;11478;51.094;7.030;2023-12-20T08:24:53;28.20;;;9.60;;
22622;SDS011;11478;51.094;7.030;2023-12-20T08:27:18;29.80;;;9.65;;
22622;SDS011;11478;51.094;7.030;2023-12-20T08:29:45;27.42;;;8.60;;
22622;SDS011;11478;51.094;7.030;2023-12-20T08:32:11;28.85;;;9.80;;
22622;SDS011;11478;51.094;7.030;2023-12-20T08:34:38;29.48;;;8.73;;
22622;SDS011;11478;51.094;7.030;2023-12-20T08:37:04;27.92;;;8.38;;
22622;SDS011;11478;51.094;7.030;2023-12-20T08:39:33;24.05;;;7.15;;
22622;SDS011;11478;51.094;7.030;2023-12-20T08:41:59;30.90;;;7.88;;
22622;SDS011;11478;51.094;7.030;2023-12-20T08:44:25;29.20;;;7.47;;
22622;SDS011;11478;51.094;7.030;2023-12-20T08:46:50;27.30;;;7.15;;
22622;SDS011;11478;51.094;7.030;2023-12-20T08:49:16;21.05;;;6.05;;
22622;SDS011;11478;51.094;7.030;2023-12-20T08:51:42;27.58;;;6.85;;
22622;SDS011;11478;51.094;7.030;2023-12-20T08:54:08;23.63;;;6.20;;
22622;SDS011;11478;51.094;7.030;2023-12-20T08:56:35;21.92;;;6.93;;
22622;SDS011;11478;51.094;7.030;2023-12-20T08:59:01;26.77;;;6.15;;
22622;SDS011;11478;51.094;7.030;2023-12-20T09:01:28;23.17;;;6.82;;
22622;SDS011;11478;51.094;7.030;2023-12-20T09:03:54;22.40;;;6.68;;
22622;SDS011;11478;51.094;7.030;2023-12-20T09:06:20;30.05;;;6.85;;
22622;SDS011;11478;51.094;7.030;2023-12-20T09:08:46;26.17;;;6.80;;
22622;SDS011;11478;51.094;7.030;2023-12-20T09:11:12;26.88;;;6.90;;
22622;SDS011;11478;51.094;7.030;2023-12-20T09:13:40;26.80;;;7.32;;
22622;SDS011;11478;51.094;7.030;2023-12-20T09:16:06;27.70;;;6.95;;
22622;SDS011;11478;51.094;7.030;2023-12-20T09:18:34;22.30;;;6.82;;
22622;SDS011;11478;51.094;7.030;2023-12-20T09:21:00;29.20;;;5.97;;
22622;SDS011;11478;51.094;7.030;2023-12-20T09:23:29;32.47;;;7.43;;
22622;SDS011;11478;51.094;7.030;2023-12-20T09:25:55;29.77;;;6.55;;
22622;SDS011;11478;51.094;7.030;2023-12-20T09:28:22;20.23;;;6.07;;
22622;SDS011;11478;51.094;7.030;2023-12-20T09:30:47;21.02;;;6.75;;
22622;SDS011;11478;51.094;7.030;2023-12-20T09:33:14;37.38;;;11.50;;
22622;SDS011;11478;51.094;7.030;2023-12-20T09:35:42;33.10;;;10.68;;
22622;SDS011;11478;51.094;7.030;2023-12-20T09:38:08;26.10;;;6.47;;
22622;SDS011;11478;51.094;7.030;2023-12-20T09:40:33;26.65;;;6.40;;
22622;SDS011;11478;51.094;7.030;2023-12-20T09:43:18;23.15;;;6.18;;
22622;SDS011;11478;51.094;7.030;2023-12-20T09:45:48;28.20;;;8.55;;
22622;SDS011;11478;51.094;7.030;2023-12-20T09:48:20;24.48;;;5.18;;
22622;SDS011;11478;51.094;7.030;2023-12-20T09:50:46;25.55;;;6.82;;
22622;SDS011;11478;51.094;7.030;2023-12-20T09:53:15;31.95;;;6.15;;
22622;SDS011;11478;51.094;7.030;2023-12-20T09:55:41;50.60;;;18.15;;
22622;SDS011;11478;51.094;7.030;2023-12-20T09:58:08;31.45;;;7.13;;
22622;SDS011;11478;51.094;7.030;2023-12-20T10:00:37;72.55;;;29.67;;
22622;SDS011;11478;51.094;7.030;2023-12-20T10:03:03;30.33;;;6.63;;
22622;SDS011;11478;51.094;7.030;2023-12-20T10:05:31;27.58;;;8.10;;
22622;SDS011;11478;51.094;7.030;2023-12-20T10:08:04;25.73;;;8.15;;
22622;SDS011;11478;51.094;7.030;2023-12-20T10:10:31;43.63;;;16.13;;
22622;SDS011;11478;51.094;7.030;2023-12-20T10:15:33;24.95;;;6.82;;
22622;SDS011;11478;51.094;7.030;2023-12-20T10:18:12;22.73;;;6.07;;
22622;SDS011;11478;51.094;7.030;2023-12-20T10:20:39;20.92;;;4.80;;
22622;SDS011;11478;51.094;7.030;2023-12-20T10:23:10;24.55;;;4.75;;
22622;SDS011;11478;51.094;7.030;2023-12-20T10:25:36;23.83;;;4.93;;
22622;SDS011;11478;51.094;7.030;2023-12-20T10:28:13;19.10;;;4.70;;
22622;SDS011;11478;51.094;7.030;2023-12-20T10:30:47;23.42;;;4.75;;
22622;SDS011;11478;51.094;7.030;2023-12-20T10:33:31;20.42;;;5.40;;
22622;SDS011;11478;51.094;7.030;2023-12-20T10:35:57;18.98;;;4.75;;
22622;SDS011;11478;51.094;7.030;2023-12-20T10:38:24;20.58;;;4.55;;
22622;SDS011;11478;51.094;7.030;2023-12-20T10:40:52;19.45;;;4.35;;
22622;SDS011;11478;51.094;7.030;2023-12-20T10:43:22;19.77;;;4.50;;
22622;SDS011;11478;51.094;7.030;2023-12-20T10:45:51;22.70;;;5.10;;
22622;SDS011;11478;51.094;7.030;2023-12-20T10:48:25;25.27;;;4.72;;
22622;SDS011;11478;51.094;7.030;2023-12-20T10:50:55;25.27;;;4.88;;
22622;SDS011;11478;51.094;7.030;2023-12-20T10:53:24;22.75;;;5.43;;
22622;SDS011;11478;51.094;7.030;2023-12-20T10:55:51;20.38;;;4.93;;
22622;SDS011;11478;51.094;7.030;2023-12-20T10:58:20;15.25;;;4.70;;
22622;SDS011;11478;51.094;7.030;2023-12-20T11:00:47;24.00;;;4.85;;
22622;SDS011;11478;51.094;7.030;2023-12-20T11:03:17;24.00;;;4.90;;
22622;SDS011;11478;51.094;7.030;2023-12-20T11:08:32;20.35;;;4.70;;
22622;SDS011;11478;51.094;7.030;2023-12-20T11:11:13;18.57;;;4.27;;
22622;SDS011;11478;51.094;7.030;2023-12-20T11:14:01;23.58;;;4.97;;
22622;SDS011;11478;51.094;7.030;2023-12-20T11:16:36;23.35;;;4.82;;
22622;SDS011;11478;51.094;7.030;2023-12-20T11:19:13;19.02;;;4.80;;
22622;SDS011;11478;51.094;7.030;2023-12-20T11:21:39;27.90;;;7.45;;
22622;SDS011;11478;51.094;7.030;2023-12-20T11:24:12;30.02;;;10.02;;
22622;SDS011;11478;51.094;7.030;2023-12-20T11:26:37;67.43;;;24.13;;
22622;SDS011;11478;51.094;7.030;2023-12-20T11:29:33;22.25;;;5.20;;
22622;SDS011;11478;51.094;7.030;2023-12-20T11:32:02;16.17;;;5.00;;
22622;SDS011;11478;51.094;7.030;2023-12-20T11:34:35;23.52;;;6.13;;
22622;SDS011;11478;51.094;7.030;2023-12-20T11:37:02;20.52;;;4.60;;
22622;SDS011;11478;51.094;7.030;2023-12-20T11:39:28;19.85;;;6.68;;
22622;SDS011;11478;51.094;7.030;2023-12-20T11:41:56;24.23;;;5.93;;
22622;SDS011;11478;51.094;7.030;2023-12-20T11:44:26;24.13;;;4.88;;
22622;SDS011;11478;51.094;7.030;2023-12-20T11:46:56;19.77;;;4.22;;
22622;SDS011;11478;51.094;7.030;2023-12-20T11:51:57;19.20;;;5.05;;
22622;SDS011;11478;51.094;7.030;2023-12-20T11:54:26;24.70;;;5.45;;
22622;SDS011;11478;51.094;7.030;2023-12-20T11:56:52;20.83;;;4.88;;
22622;SDS011;11478;51.094;7.030;2023-12-20T11:59:23;17.95;;;4.63;;
22622;SDS011;11478;51.094;7.030;2023-12-20T12:01:49;24.15;;;5.10;;
22622;SDS011;11478;51.094;7.030;2023-12-20T12:04:21;20.58;;;4.97;;
22622;SDS011;11478;51.094;7.030;2023-12-20T12:06:49;20.55;;;4.70;;
22622;SDS011;11478;51.094;7.030;2023-12-20T12:09:15;20.95;;;4.47;;
22622;SDS011;11478;51.094;7.030;2023-12-20T12:14:20;23.27;;;5.63;;
22622;SDS011;11478;51.094;7.030;2023-12-20T12:16:46;27.20;;;5.15;;
22622;SDS011;11478;51.094;7.030;2023-12-20T12:19:19;19.75;;;4.60;;
22622;SDS011;11478;51.094;7.030;2023-12-20T12:21:46;21.02;;;4.45;;
22622;SDS011;11478;51.094;7.030;2023-12-20T12:24:12;30.45;;;5.55;;
22622;SDS011;11478;51.094;7.030;2023-12-20T12:26:42;18.60;;;4.45;;
22622;SDS011;11478;51.094;7.030;2023-12-20T12:29:21;27.73;;;4.88;;
22622;SDS011;11478;51.094;7.030;2023-12-20T12:31:46;20.30;;;4.20;;
22622;SDS011;11478;51.094;7.030;2023-12-20T12:34:13;23.27;;;4.20;;
22622;SDS011;11478;51.094;7.030;2023-12-20T12:36:39;23.23;;;4.20;;
22622;SDS011;11478;51.094;7.030;2023-12-20T12:39:12;22.80;;;5.25;;
22622;SDS011;11478;51.094;7.030;2023-12-20T12:41:40;18.70;;;4.80;;
22622;SDS011;11478;51.094;7.030;2023-12-20T12:44:08;18.77;;;4.50;;
22622;SDS011;11478;51.094;7.030;2023-12-20T12:46:37;19.02;;;4.57;;
22622;SDS011;11478;51.094;7.030;2023-12-20T12:49:06;21.33;;;4.78;;
22622;SDS011;11478;51.094;7.030;2023-12-20T12:51:32;24.30;;;5.07;;
22622;SDS011;11478;51.094;7.030;2023-12-20T12:53:58;25.02;;;5.55;;
22622;SDS011;11478;51.094;7.030;2023-12-20T12:56:24;20.52;;;5.78;;
22622;SDS011;11478;51.094;7.030;2023-12-20T12:58:50;25.48;;;5.30;;
22622;SDS011;11478;51.094;7.030;2023-12-20T13:01:15;17.50;;;4.95;;
22622;SDS011;11478;51.094;7.030;2023-12-20T13:03:41;24.17;;;5.35;;
22622;SDS011;11478;51.094;7.030;2023-12-20T13:06:07;20.63;;;5.30;;
22622;SDS011;11478;51.094;7.030;2023-12-20T13:08:35;21.75;;;5.80;;
22622;SDS011;11478;51.094;7.030;2023-12-20T13:11:01;25.20;;;5.72;;
22622;SDS011;11478;51.094;7.030;2023-12-20T13:13:31;22.90;;;5.30;;
22622;SDS011;11478;51.094;7.030;2023-12-20T13:15:57;23.23;;;5.40;;
22622;SDS011;11478;51.094;7.030;2023-12-20T13:18:23;25.00;;;5.68;;
22622;SDS011;11478;51.094;7.030;2023-12-20T13:20:52;19.75;;;5.28;;
22622;SDS011;11478;51.094;7.030;2023-12-20T13:23:18;24.90;;;5.50;;
22622;SDS011;11478;51.094;7.030;2023-12-20T13:25:47;22.05;;;5.38;;
22622;SDS011;11478;51.094;7.030;2023-12-20T13:28:13;24.38;;;5.95;;
22622;SDS011;11478;51.094;7.030;2023-12-20T13:30:39;20.25;;;5.78;;
22622;SDS011;11478;51.094;7.030;2023-12-20T13:33:05;22.15;;;5.45;;
22622;SDS011;11478;51.094;7.030;2023-12-20T13:35:42;18.95;;;6.10;;
22622;SDS011;11478;51.094;7.030;2023-12-20T13:38:07;24.65;;;6.32;;
22622;SDS011;11478;51.094;7.030;2023-12-20T13:40:33;22.52;;;5.88;;
22622;SDS011;11478;51.094;7.030;2023-12-20T13:42:59;27.65;;;6.40;;
22622;SDS011;11478;51.094;7.030;2023-12-20T13:45:26;18.75;;;6.25;;
22622;SDS011;11478;51.094;7.030;2023-12-20T13:47:52;19.55;;;5.45;;
22622;SDS011;11478;51.094;7.030;2023-12-20T13:50:19;22.35;;;6.18;;
22622;SDS011;11478;51.094;7.030;2023-12-20T13:52:48;21.02;;;5.47;;
22622;SDS011;11478;51.094;7.030;2023-12-20T13:55:14;22.00;;;5.63;;
22622;SDS011;11478;51.094;7.030;2023-12-20T13:57:40;19.80;;;5.78;;
22622;SDS011;11478;51.094;7.030;2023-12-20T14:00:07;22.80;;;5.45;;
22622;SDS011;11478;51.094;7.030;2023-12-20T14:02:39;18.30;;;5.85;;
22622;SDS011;11478;51.094;7.030;2023-12-20T14:05:08;26.73;;;6.32;;
22622;SDS011;11478;51.094;7.030;2023-12-20T14:07:35;19.23;;;6.28;;
22622;SDS011;11478;51.094;7.030;2023-12-20T14:10:01;21.98;;;6.63;;
22622;SDS011;11478;51.094;7.030;2023-12-20T14:12:28;23.42;;;8.52;;
22622;SDS011;11478;51.094;7.030;2023-12-20T14:15:07;17.80;;;5.70;;
22622;SDS011;11478;51.094;7.030;2023-12-20T14:18:06;19.95;;;6.00;;
22622;SDS011;11478;51.094;7.030;2023-12-20T14:20:37;21.02;;;5.45;;
22622;SDS011;11478;51.094;7.030;2023-12-20T14:23:04;20.77;;;5.80;;
22622;SDS011;11478;51.094;7.030;2023-12-20T14:25:30;17.73;;;5.05;;
22622;SDS011;11478;51.094;7.030;2023-12-20T14:27:56;19.92;;;5.28;;
22622;SDS011;11478;51.094;7.030;2023-12-20T14:30:26;18.77;;;5.38;;
22622;SDS011;11478;51.094;7.030;2023-12-20T14:33:00;18.65;;;5.50;;
22622;SDS011;11478;51.094;7.030;2023-12-20T14:35:26;16.02;;;5.13;;
22622;SDS011;11478;51.094;7.030;2023-12-20T14:38:00;16.77;;;5.07;;
22622;SDS011;11478;51.094;7.030;2023-12-20T14:40:26;19.45;;;4.95;;
22622;SDS011;11478;51.094;7.030;2023-12-20T14:42:54;17.42;;;5.45;;
22622;SDS011;11478;51.094;7.030;2023-12-20T14:45:21;14.70;;;5.22;;
22622;SDS011;11478;51.094;7.030;2023-12-20T14:47:52;18.15;;;5.72;;
22622;SDS011;11478;51.094;7.030;2023-12-20T14:50:21;22.13;;;6.07;;
22622;SDS011;11478;51.094;7.030;2023-12-20T14:52:51;18.90;;;6.43;;
22622;SDS011;11478;51.094;7.030;2023-12-20T14:55:19;21.60;;;7.43;;
22622;SDS011;11478;51.094;7.030;2023-12-20T14:57:47;18.58;;;6.28;;
22622;SDS011;11478;51.094;7.030;2023-12-20T15:00:14;25.45;;;8.15;;
22622;SDS011;11478;51.094;7.030;2023-12-20T15:02:48;19.83;;;6.78;;